createdAt,value
2018-12-18T00:02:15.207Z,4.69
2018-12-18T00:04:42.622Z,4.75
2018-12-18T00:07:10.065Z,4.82
2018-12-18T00:09:37.473Z,4.98
2018-12-18T00:12:04.968Z,4.95
2018-12-18T00:14:32.411Z,4.99
2018-12-18T00:16:59.854Z,5.07
2018-12-18T00:19:27.261Z,5.02
2018-12-18T00:21:54.728Z,5.01
2018-12-18T00:24:22.205Z,5.00
2018-12-18T00:26:49.608Z,4.99
2018-12-18T00:29:17.036Z,4.97
2018-12-18T00:31:44.428Z,5.05
2018-12-18T00:34:11.821Z,5.04
2018-12-18T00:36:39.232Z,5.03
2018-12-18T00:39:08.768Z,5.02
2018-12-18T00:41:36.163Z,5.05
2018-12-18T00:44:03.668Z,4.98
2018-12-18T00:46:31.108Z,5.11
2018-12-18T00:48:58.524Z,5.13
2018-12-18T00:51:25.920Z,5.08
2018-12-18T00:53:53.333Z,5.03
2018-12-18T00:56:20.736Z,4.97
2018-12-18T00:58:48.148Z,4.91
2018-12-18T01:01:15.596Z,5.00
2018-12-18T01:03:42.996Z,4.88
2018-12-18T01:06:10.410Z,4.70
2018-12-18T01:08:37.808Z,4.72
2018-12-18T01:11:05.208Z,4.65
2018-12-18T01:13:32.616Z,4.49
2018-12-18T01:16:00.062Z,4.46
2018-12-18T01:18:27.578Z,4.53
2018-12-18T01:20:54.997Z,4.31
2018-12-18T01:23:22.443Z,4.31
2018-12-18T01:25:49.929Z,4.24
2018-12-18T01:28:17.355Z,4.17
2018-12-18T01:30:44.759Z,4.04
2018-12-18T01:33:12.156Z,3.93
2018-12-18T01:35:39.573Z,3.85
2018-12-18T01:38:06.976Z,3.74
2018-12-18T01:40:34.376Z,3.60
2018-12-18T01:43:01.792Z,3.51
2018-12-18T01:45:29.190Z,3.53
2018-12-18T01:47:56.585Z,3.43
2018-12-18T01:50:23.996Z,3.38
2018-12-18T01:52:51.392Z,3.31
2018-12-18T01:55:18.792Z,3.37
2018-12-18T01:57:46.212Z,3.40
2018-12-18T02:00:13.659Z,3.44
2018-12-18T02:02:41.065Z,3.30
2018-12-18T02:05:08.476Z,3.52
2018-12-18T02:07:36.219Z,3.60
2018-12-18T02:10:04.316Z,3.27
2018-12-18T02:12:31.913Z,3.20
2018-12-18T02:14:59.309Z,3.26
2018-12-18T02:17:26.705Z,2.99
2018-12-18T02:19:54.116Z,2.94
2018-12-18T02:22:21.528Z,2.86
2018-12-18T02:24:48.981Z,2.80
2018-12-18T02:27:16.432Z,2.73
2018-12-18T02:29:43.856Z,2.65
2018-12-18T02:32:11.391Z,2.69
2018-12-18T02:34:38.784Z,2.68
2018-12-18T02:37:06.194Z,2.65
2018-12-18T02:39:33.593Z,2.55
2018-12-18T02:42:00.980Z,2.50
2018-12-18T02:44:28.385Z,2.41
2018-12-18T02:46:55.784Z,2.52
2018-12-18T02:49:23.188Z,2.67
2018-12-18T02:51:50.579Z,2.88
2018-12-18T02:54:17.976Z,2.88
2018-12-18T02:56:45.381Z,2.87
2018-12-18T02:59:12.776Z,3.00
2018-12-18T03:01:40.189Z,3.08
2018-12-18T03:04:07.590Z,3.00
2018-12-18T03:06:34.985Z,3.03
2018-12-18T03:09:02.386Z,2.86
2018-12-18T03:11:29.809Z,2.78
2018-12-18T03:13:57.305Z,2.61
2018-12-18T03:16:24.710Z,2.60
2018-12-18T03:18:52.200Z,2.46
2018-12-18T03:21:19.615Z,2.45
2018-12-18T03:23:47.015Z,2.44
2018-12-18T03:26:14.412Z,2.43
2018-12-18T03:28:41.816Z,2.37
2018-12-18T03:31:09.215Z,2.40
2018-12-18T03:33:36.638Z,2.28
2018-12-18T03:36:04.158Z,2.18
2018-12-18T03:38:31.565Z,2.41
2018-12-18T03:40:59.017Z,2.46
2018-12-18T03:43:26.412Z,2.38
2018-12-18T03:45:53.830Z,2.24
2018-12-18T03:48:21.220Z,2.33
2018-12-18T03:50:48.614Z,2.31
2018-12-18T03:53:16.115Z,2.18
2018-12-18T03:55:44.333Z,2.13
2018-12-18T03:58:11.745Z,2.09
2018-12-18T04:00:39.184Z,2.04
2018-12-18T04:03:06.582Z,2.06
2018-12-18T04:05:34.073Z,2.05
2018-12-18T04:08:01.624Z,2.01
2018-12-18T04:10:29.105Z,1.93
2018-12-18T04:12:56.504Z,1.86
2018-12-18T04:15:23.950Z,1.85
2018-12-18T04:17:51.361Z,1.81
2018-12-18T04:20:18.839Z,1.96
2018-12-18T04:22:46.252Z,1.96
2018-12-18T04:25:13.667Z,1.92
2018-12-18T04:27:41.148Z,1.95
2018-12-18T04:30:08.583Z,1.94
2018-12-18T04:32:36.002Z,1.94
2018-12-18T04:35:03.883Z,1.92
2018-12-18T04:37:31.284Z,1.89
2018-12-18T04:39:58.691Z,1.95
2018-12-18T04:47:14.624Z,1.78
2018-12-18T04:49:42.014Z,1.73
2018-12-18T04:52:09.508Z,1.69
2018-12-18T04:54:38.994Z,1.68
2018-12-18T04:57:06.476Z,1.67
2018-12-18T04:59:33.972Z,1.72
2018-12-18T05:02:01.381Z,1.66
2018-12-18T05:04:28.865Z,1.59
2018-12-18T05:06:56.265Z,1.57
2018-12-18T05:09:23.749Z,1.53
2018-12-18T05:11:51.155Z,1.52
2018-12-18T05:14:18.563Z,1.55
2018-12-18T05:16:45.967Z,1.58
2018-12-18T05:19:13.419Z,1.52
2018-12-18T05:21:40.829Z,1.53
2018-12-18T05:24:08.235Z,1.61
2018-12-18T05:26:35.634Z,1.67
2018-12-18T05:29:03.082Z,1.61
2018-12-18T05:31:30.529Z,1.57
2018-12-18T05:33:57.924Z,1.54
2018-12-18T05:36:26.041Z,1.62
2018-12-18T05:38:53.666Z,1.60
2018-12-18T05:41:21.121Z,1.45
2018-12-18T05:43:48.530Z,1.39
2018-12-18T05:46:15.930Z,1.37
2018-12-18T05:48:43.341Z,1.34
2018-12-18T05:51:10.788Z,1.33
2018-12-18T05:53:38.280Z,1.35
2018-12-18T05:56:05.689Z,1.36
2018-12-18T05:58:33.081Z,1.34
2018-12-18T06:01:00.480Z,1.32
2018-12-18T06:03:27.880Z,1.27
2018-12-18T06:05:55.280Z,1.27
2018-12-18T06:08:22.688Z,1.35
2018-12-18T06:10:50.076Z,1.35
2018-12-18T06:13:17.484Z,1.35
2018-12-18T06:15:44.925Z,1.37
2018-12-18T06:18:12.317Z,1.39
2018-12-18T06:20:39.762Z,1.43
2018-12-18T06:23:07.132Z,1.33
2018-12-18T06:25:34.548Z,1.36
2018-12-18T06:28:01.946Z,1.35
2018-12-18T06:30:29.476Z,1.32
2018-12-18T06:32:56.888Z,1.27
2018-12-18T06:35:24.276Z,1.29
2018-12-18T06:37:51.682Z,1.29
2018-12-18T06:40:19.084Z,1.23
2018-12-18T06:42:46.529Z,1.23
2018-12-18T06:45:13.932Z,1.34
2018-12-18T06:47:41.325Z,1.36
2018-12-18T06:50:08.763Z,1.27
2018-12-18T06:52:36.168Z,1.25
2018-12-18T06:55:03.864Z,1.26
2018-12-18T06:57:31.276Z,1.22
2018-12-18T06:59:58.681Z,1.30
2018-12-18T07:02:26.075Z,1.31
2018-12-18T07:04:53.480Z,1.27
2018-12-18T07:07:20.883Z,1.24
2018-12-18T07:09:48.285Z,1.27
2018-12-18T07:12:15.695Z,1.23
2018-12-18T07:14:43.088Z,1.23
2018-12-18T07:17:10.561Z,1.24
2018-12-18T07:19:37.938Z,1.20
2018-12-18T07:22:05.344Z,1.17
2018-12-18T07:24:32.830Z,1.13
2018-12-18T07:27:00.228Z,1.11
2018-12-18T07:29:27.667Z,1.15
2018-12-18T07:31:55.137Z,1.16
2018-12-18T07:34:22.532Z,1.19
2018-12-18T07:36:49.944Z,1.21
2018-12-18T07:39:17.342Z,1.23
2018-12-18T07:41:44.736Z,1.31
2018-12-18T07:44:12.140Z,1.25
2018-12-18T07:46:39.545Z,1.27
2018-12-18T07:49:06.951Z,1.26
2018-12-18T07:51:34.448Z,1.27
2018-12-18T07:54:01.830Z,1.30
2018-12-18T07:56:29.236Z,1.26
2018-12-18T07:58:56.628Z,1.26
2018-12-18T08:01:24.038Z,1.37
2018-12-18T08:03:51.440Z,1.39
2018-12-18T08:06:18.832Z,1.37
2018-12-18T08:08:46.228Z,1.38
2018-12-18T08:11:13.625Z,1.42
2018-12-18T08:13:41.036Z,1.37
2018-12-18T08:16:08.521Z,1.33
2018-12-18T08:18:35.909Z,1.46
2018-12-18T08:21:03.364Z,1.60
2018-12-18T08:23:30.776Z,1.46
2018-12-18T08:25:58.168Z,1.68
2018-12-18T08:28:25.648Z,1.65
2018-12-18T08:30:53.046Z,1.71
2018-12-18T08:33:20.449Z,1.68
2018-12-18T08:35:47.851Z,1.74
2018-12-18T08:38:15.259Z,1.75
2018-12-18T08:40:42.652Z,1.73
2018-12-18T08:43:10.048Z,1.84
2018-12-18T08:45:37.460Z,1.95
2018-12-18T08:48:04.858Z,2.09
2018-12-18T08:50:32.317Z,2.14
2018-12-18T08:52:59.713Z,2.09
2018-12-18T08:55:27.107Z,2.16
2018-12-18T08:57:54.558Z,2.13
2018-12-18T09:00:21.952Z,2.21
2018-12-18T09:02:49.356Z,2.26
2018-12-18T09:05:16.757Z,2.31
2018-12-18T09:07:44.156Z,2.37
2018-12-18T09:10:11.612Z,2.40
2018-12-18T09:12:39.010Z,2.57
2018-12-18T09:18:09.704Z,2.84
2018-12-18T09:20:37.122Z,2.97
2018-12-18T09:23:04.516Z,3.02
2018-12-18T09:25:31.921Z,3.15
2018-12-18T09:27:59.330Z,3.21
2018-12-18T09:30:26.716Z,3.32
2018-12-18T09:32:54.130Z,3.38
2018-12-18T09:35:21.539Z,3.42
2018-12-18T09:37:50.877Z,3.58
2018-12-18T09:40:20.233Z,3.63
2018-12-18T09:42:53.278Z,3.58
2018-12-18T09:45:20.725Z,3.53
2018-12-18T09:47:48.120Z,3.52
2018-12-18T09:50:15.537Z,3.57
2018-12-18T09:52:42.928Z,3.69
2018-12-18T09:55:10.326Z,3.70
2018-12-18T09:57:43.536Z,3.73
2018-12-18T10:00:11.069Z,3.55
2018-12-18T10:02:38.482Z,3.54
2018-12-18T10:05:06.056Z,3.77
2018-12-18T10:07:33.508Z,3.84
2018-12-18T10:10:00.986Z,4.03
2018-12-18T10:12:33.847Z,4.02
2018-12-18T10:15:01.273Z,4.10
2018-12-18T10:17:28.746Z,4.10
2018-12-18T10:19:56.143Z,4.09
2018-12-18T10:22:23.553Z,4.20
2018-12-18T10:24:50.959Z,4.26
2018-12-18T10:27:18.504Z,4.26
2018-12-18T10:29:45.910Z,4.23
2018-12-18T10:32:13.328Z,4.22
2018-12-18T10:34:40.739Z,4.29
2018-12-18T10:37:08.129Z,4.32
2018-12-18T10:39:35.572Z,4.39
2018-12-18T10:42:02.979Z,4.34
2018-12-18T10:44:30.432Z,4.32
2018-12-18T10:46:57.844Z,4.29
2018-12-18T10:49:25.244Z,4.41
2018-12-18T10:51:52.641Z,4.43
2018-12-18T10:54:20.133Z,4.52
2018-12-18T10:56:47.512Z,4.54
2018-12-18T10:59:14.920Z,4.55
2018-12-18T11:01:47.135Z,4.70
2018-12-18T11:04:14.700Z,4.68
2018-12-18T11:06:42.311Z,4.64
2018-12-18T11:09:09.770Z,4.75
2018-12-18T11:11:37.807Z,4.79
2018-12-18T11:14:05.308Z,4.84
2018-12-18T11:16:37.309Z,4.84
2018-12-18T11:19:02.208Z,4.89
2018-12-18T11:21:29.741Z,4.84
2018-12-18T11:23:57.828Z,4.93
2018-12-18T11:26:25.244Z,4.99
2018-12-18T11:28:52.640Z,5.03
2018-12-18T11:31:20.047Z,4.95
2018-12-18T11:33:47.459Z,5.06
2018-12-18T11:36:16.611Z,5.13
2018-12-18T11:38:44.399Z,5.08
2018-12-18T11:41:11.795Z,5.18
2018-12-18T11:43:39.188Z,5.23
2018-12-18T11:46:06.604Z,5.30
2018-12-18T11:48:34.001Z,5.39
2018-12-18T11:51:01.400Z,5.48
2018-12-18T11:53:28.832Z,5.55
2018-12-18T11:55:56.212Z,5.53
2018-12-18T11:58:23.617Z,5.66
2018-12-18T12:00:51.074Z,5.74
2018-12-18T12:03:18.480Z,5.74
2018-12-18T12:05:45.901Z,5.84
2018-12-18T12:08:13.308Z,5.93
2018-12-18T12:10:40.717Z,5.93
2018-12-18T12:13:08.130Z,5.91
2018-12-18T12:15:35.552Z,5.88
2018-12-18T12:18:03.033Z,5.89
2018-12-18T12:20:30.440Z,5.89
2018-12-18T12:22:57.857Z,5.90
2018-12-18T12:25:25.257Z,5.95
2018-12-18T12:27:58.172Z,6.03
2018-12-18T12:30:25.589Z,6.02
2018-12-18T12:32:52.988Z,5.95
2018-12-18T12:35:20.389Z,6.07
2018-12-18T12:37:47.875Z,6.07
2018-12-18T12:40:15.257Z,6.13
2018-12-18T12:42:42.659Z,6.13
2018-12-18T12:45:10.072Z,6.14
2018-12-18T12:47:37.468Z,6.18
2018-12-18T12:50:06.114Z,6.13
2018-12-18T12:52:33.512Z,6.18
2018-12-18T12:55:00.968Z,6.25
2018-12-18T12:57:28.365Z,6.30
2018-12-18T12:59:55.781Z,6.32
2018-12-18T13:02:23.182Z,6.24
2018-12-18T13:04:50.588Z,6.25
2018-12-18T13:07:17.998Z,6.26
2018-12-18T13:09:45.401Z,6.40
2018-12-18T13:12:12.804Z,6.45
2018-12-18T13:14:40.205Z,6.35
2018-12-18T13:17:07.621Z,6.24
2018-12-18T13:19:35.036Z,6.36
2018-12-18T13:22:02.433Z,6.46
2018-12-18T13:24:29.832Z,6.49
2018-12-18T13:26:57.254Z,6.44
2018-12-18T13:29:25.501Z,6.38
2018-12-18T13:31:53.195Z,6.59
2018-12-18T13:34:20.680Z,6.51
2018-12-18T13:36:49.132Z,6.49
2018-12-18T13:39:16.601Z,6.44
2018-12-18T13:41:44.003Z,6.64
2018-12-18T13:44:11.409Z,6.57
2018-12-18T13:46:38.796Z,6.61
2018-12-18T13:49:06.212Z,6.68
2018-12-18T13:51:33.631Z,6.56
2018-12-18T13:54:01.083Z,6.53
2018-12-18T13:56:28.489Z,6.66
2018-12-18T13:58:55.902Z,6.63
2018-12-18T14:01:23.492Z,6.59
2018-12-18T14:03:50.904Z,6.44
2018-12-18T14:06:18.317Z,6.24
2018-12-18T14:08:45.760Z,6.32
2018-12-18T14:11:13.263Z,6.36
2018-12-18T14:13:40.669Z,6.35
2018-12-18T14:16:08.072Z,6.36
2018-12-18T14:18:35.482Z,6.32
2018-12-18T14:21:02.915Z,6.33
2018-12-18T14:23:30.300Z,6.23
2018-12-18T14:25:57.704Z,6.29
2018-12-18T14:28:25.100Z,6.32
2018-12-18T14:30:52.508Z,6.27
2018-12-18T14:33:19.915Z,6.28
2018-12-18T14:35:47.347Z,6.26
2018-12-18T14:38:14.740Z,6.25
2018-12-18T14:40:42.137Z,6.19
2018-12-18T14:43:09.536Z,6.10
2018-12-18T14:45:36.948Z,6.02
2018-12-18T14:48:04.348Z,6.03
2018-12-18T14:50:31.745Z,5.91
2018-12-18T14:52:59.144Z,5.93
2018-12-18T14:55:26.544Z,5.89
2018-12-18T14:57:54.054Z,5.82
2018-12-18T15:00:21.433Z,5.86
2018-12-18T15:02:48.869Z,5.69
2018-12-18T15:05:17.742Z,5.55
2018-12-18T15:07:45.368Z,5.44
2018-12-18T15:10:12.824Z,5.42
2018-12-18T15:12:42.170Z,5.27
2018-12-18T15:15:09.564Z,5.20
2018-12-18T15:17:36.982Z,5.03
2018-12-18T15:20:06.676Z,5.13
2018-12-18T15:22:34.089Z,5.13
2018-12-18T15:25:01.485Z,5.04
2018-12-18T15:27:28.889Z,4.84
2018-12-18T15:29:56.294Z,4.74
2018-12-18T15:32:24.030Z,4.60
2018-12-18T15:34:51.443Z,4.67
2018-12-18T15:37:18.844Z,4.59
2018-12-18T15:39:46.240Z,4.42
2018-12-18T15:42:13.645Z,4.53
2018-12-18T15:44:41.039Z,4.53
2018-12-18T15:47:08.454Z,4.41
2018-12-18T15:49:36.842Z,4.26
2018-12-18T15:52:04.402Z,4.36
2018-12-18T15:54:31.809Z,4.29
2018-12-18T15:56:59.291Z,4.35
2018-12-18T15:59:26.710Z,4.37
2018-12-18T16:01:54.115Z,4.36
2018-12-18T16:04:24.523Z,4.41
2018-12-18T16:06:52.693Z,4.42
2018-12-18T16:09:20.094Z,4.44
2018-12-18T16:11:47.496Z,4.45
2018-12-18T16:14:14.897Z,4.44
2018-12-18T16:16:42.300Z,4.30
2018-12-18T16:19:09.791Z,4.20
2018-12-18T16:21:37.324Z,4.24
2018-12-18T16:24:04.724Z,4.29
2018-12-18T16:26:32.189Z,4.38
2018-12-18T16:28:59.594Z,4.35
2018-12-18T16:31:27.004Z,4.33
2018-12-18T16:33:54.412Z,4.38
2018-12-18T16:36:21.809Z,4.39
2018-12-18T16:38:49.232Z,4.33
2018-12-18T16:41:16.624Z,4.20
2018-12-18T16:43:44.728Z,4.17
2018-12-18T16:46:12.178Z,4.09
2018-12-18T16:48:39.613Z,4.05
2018-12-18T16:51:07.026Z,3.97
2018-12-18T16:53:34.430Z,3.91
2018-12-18T16:56:01.851Z,3.89
2018-12-18T16:58:29.283Z,3.75
2018-12-18T17:00:56.743Z,3.81
2018-12-18T17:03:24.120Z,3.77
2018-12-18T17:05:51.861Z,3.75
2018-12-18T17:08:19.236Z,3.69
2018-12-18T17:10:46.636Z,3.66
2018-12-18T17:13:14.037Z,3.58
2018-12-18T17:15:41.436Z,3.53
2018-12-18T17:18:08.848Z,3.37
2018-12-18T17:20:36.249Z,3.29
2018-12-18T17:23:03.651Z,3.29
2018-12-18T17:25:31.053Z,3.25
2018-12-18T17:27:58.452Z,3.25
2018-12-18T17:30:25.913Z,3.21
2018-12-18T17:32:53.319Z,3.27
2018-12-18T17:35:20.730Z,3.23
2018-12-18T17:37:48.126Z,3.22
2018-12-18T17:40:15.564Z,3.27
2018-12-18T17:42:42.999Z,3.27
2018-12-18T17:45:10.384Z,3.15
2018-12-18T17:47:37.784Z,3.31
2018-12-18T17:50:06.294Z,3.34
2018-12-18T17:52:33.690Z,3.38
2018-12-18T17:55:01.090Z,3.33
2018-12-18T17:57:28.628Z,3.32
2018-12-18T17:59:56.017Z,3.15
2018-12-18T18:02:23.480Z,3.13
2018-12-18T18:04:50.925Z,3.16
2018-12-18T18:07:18.368Z,3.10
2018-12-18T18:09:45.821Z,3.07
2018-12-18T18:12:13.310Z,2.97
2018-12-18T18:14:40.713Z,2.99
2018-12-18T18:17:08.157Z,2.84
2018-12-18T18:19:35.555Z,2.86
2018-12-18T18:22:03.004Z,2.69
2018-12-18T18:24:30.460Z,2.73
2018-12-18T18:26:57.865Z,2.78
2018-12-18T18:29:25.265Z,2.85
2018-12-18T18:31:52.676Z,2.70
2018-12-18T18:34:20.069Z,2.71
2018-12-18T18:36:47.574Z,2.71
2018-12-18T18:39:15.322Z,2.55
2018-12-18T18:41:42.856Z,2.38
2018-12-18T18:44:10.257Z,2.33
2018-12-18T18:46:37.654Z,2.38
2018-12-18T18:49:05.143Z,2.25
2018-12-18T18:51:32.640Z,2.40
2018-12-18T18:54:00.024Z,2.50
2018-12-18T18:56:27.735Z,2.61
2018-12-18T18:58:55.121Z,2.56
2018-12-18T19:01:22.542Z,2.37
2018-12-18T19:03:49.937Z,2.25
2018-12-18T19:06:17.337Z,2.34
2018-12-18T19:08:44.837Z,2.36
2018-12-18T19:11:12.224Z,2.37
2018-12-18T19:13:40.556Z,2.42
2018-12-18T19:16:08.145Z,2.42
2018-12-18T19:18:35.533Z,2.42
2018-12-18T19:21:02.945Z,2.42
2018-12-18T19:23:30.340Z,2.39
2018-12-18T19:25:57.749Z,2.26
2018-12-18T19:28:25.141Z,2.16
2018-12-18T19:30:52.538Z,2.09
2018-12-18T19:33:19.946Z,2.16
2018-12-18T19:35:47.359Z,2.05
2018-12-18T19:38:14.764Z,2.00
2018-12-18T19:40:42.162Z,1.97
2018-12-18T19:43:09.553Z,2.05
2018-12-18T19:45:36.956Z,2.12
2018-12-18T19:48:04.400Z,2.07
2018-12-18T19:50:31.861Z,2.02
2018-12-18T19:52:59.278Z,1.89
2018-12-18T19:55:26.682Z,1.78
2018-12-18T19:57:54.086Z,1.63
2018-12-18T20:00:21.483Z,1.64
2018-12-18T20:02:48.985Z,1.71
2018-12-18T20:05:16.421Z,2.03
2018-12-18T20:07:43.820Z,2.10
2018-12-18T20:10:11.238Z,2.17
2018-12-18T20:12:38.634Z,2.25
2018-12-18T20:15:06.143Z,2.24
2018-12-18T20:17:33.787Z,2.30
2018-12-18T20:20:01.197Z,2.31
2018-12-18T20:22:28.868Z,2.32
2018-12-18T20:24:56.276Z,2.34
2018-12-18T20:27:23.683Z,2.33
2018-12-18T20:29:51.336Z,2.33
2018-12-18T20:32:18.743Z,2.29
2018-12-18T20:34:46.149Z,2.31
2018-12-18T20:37:18.276Z,2.27
2018-12-18T20:39:43.004Z,2.26
2018-12-18T20:42:10.406Z,2.27
2018-12-18T20:44:37.801Z,2.16
2018-12-18T20:47:05.352Z,2.19
2018-12-18T20:49:32.748Z,2.28
2018-12-18T20:52:00.166Z,2.14
2018-12-18T20:54:27.561Z,2.12
2018-12-18T20:56:54.961Z,2.11
2018-12-18T20:59:22.452Z,2.10
2018-12-18T21:01:49.885Z,2.01
2018-12-18T21:04:17.297Z,2.06
2018-12-18T21:06:44.692Z,2.01
2018-12-18T21:09:12.084Z,2.07
2018-12-18T21:11:39.498Z,1.94
2018-12-18T21:14:06.889Z,2.00
2018-12-18T21:16:34.285Z,2.01
2018-12-18T21:19:01.700Z,1.98
2018-12-18T21:21:29.118Z,1.94
2018-12-18T21:23:56.508Z,1.87
2018-12-18T21:26:23.905Z,1.75
2018-12-18T21:28:51.304Z,1.61
2018-12-18T21:31:18.709Z,1.63
2018-12-18T21:33:46.121Z,1.68
2018-12-18T21:36:13.522Z,1.71
2018-12-18T21:38:40.913Z,1.73
2018-12-18T21:41:08.321Z,1.74
2018-12-18T21:43:36.458Z,1.66
2018-12-18T21:46:03.914Z,1.64
2018-12-18T21:48:31.322Z,1.52
2018-12-18T21:50:58.720Z,1.51
2018-12-18T21:53:26.123Z,1.56
2018-12-18T21:55:53.519Z,1.67
2018-12-18T21:58:20.920Z,1.49
2018-12-18T22:00:48.321Z,1.52
2018-12-18T22:03:15.718Z,1.58
2018-12-18T22:05:43.165Z,1.52
2018-12-18T22:08:10.570Z,1.50
2018-12-18T22:10:37.967Z,1.53
2018-12-18T22:13:05.368Z,1.56
2018-12-18T22:15:32.764Z,1.61
2018-12-18T22:18:00.153Z,1.47
2018-12-18T22:20:27.561Z,1.45
2018-12-18T22:22:54.952Z,1.38
2018-12-18T22:25:22.360Z,1.40
2018-12-18T22:27:50.002Z,1.51
2018-12-18T22:30:17.553Z,1.46
2018-12-18T22:32:44.956Z,1.41
2018-12-18T22:35:12.509Z,1.38
2018-12-18T22:37:39.957Z,1.40
2018-12-18T22:40:07.444Z,1.40
2018-12-18T22:42:34.853Z,1.30
2018-12-18T22:45:02.246Z,1.25
2018-12-18T22:47:29.725Z,1.32
2018-12-18T22:49:57.125Z,1.29
2018-12-18T22:52:24.517Z,1.12
2018-12-18T22:54:51.979Z,1.31
2018-12-18T22:57:19.372Z,1.15
2018-12-18T22:59:46.780Z,1.06
2018-12-18T23:02:16.261Z,0.98
2018-12-18T23:04:43.980Z,0.98
2018-12-18T23:07:11.476Z,0.86
2018-12-18T23:09:38.881Z,0.91
2018-12-18T23:12:06.348Z,1.00
2018-12-18T23:14:33.746Z,1.08
2018-12-18T23:17:01.144Z,1.04
2018-12-18T23:19:28.546Z,0.90
2018-12-18T23:21:55.947Z,0.87
2018-12-18T23:24:23.442Z,0.80
2018-12-18T23:26:50.828Z,0.92
2018-12-18T23:29:18.248Z,0.91
2018-12-18T23:31:45.689Z,0.96
2018-12-18T23:34:22.789Z,0.85
2018-12-18T23:36:50.181Z,0.78
2018-12-18T23:39:17.601Z,0.71
2018-12-18T23:41:45.649Z,0.91
2018-12-18T23:44:13.937Z,0.83
2018-12-18T23:46:41.350Z,0.83
2018-12-18T23:49:08.773Z,0.86
2018-12-18T23:51:36.253Z,0.88
2018-12-18T23:54:03.775Z,0.86
2018-12-18T23:56:31.179Z,0.85
2018-12-18T23:58:58.676Z,0.82
